Terminal Aerodrome Forecast
Issued by NWS Lake Charles, LA

Home | Current Version | Previous Version | Text Only | Print | Product List | Glossary On
Versions: 1 2 3 4 5 6 7 8 9 10 11 12 13 14
000
FTUS44 KLCH 221700
TAFLFT
TAF
KLFT 221720Z 2218/2318 22005KT P6SM SCT030
      TEMPO 2218/2219 BKN030
     FM222000 20005KT P6SM VCTS SCT040CB SCT200
     FM230100 00000KT P6SM FEW050 BKN200
     FM231400 VRB03KT P6SM SCT025=

USA.gov is the U.S. government's official web portal to all federal, state and local government web resources and services.